Time;durP1;ratioP1;P1;durP2;ratioP2;P2;SDS_P1;SDS_P2;PMS_P1;PMS_P2;Temp;Humidity;BMP_temperature;BMP_pressure;BME280_temperature;BME280_humidity;BME280_pressure;Samples;Min_cycle;Max_cycle;Signal;HPM_P1;HPM_P2
2022/09/16 00:01:56;;;;;;;7.82;4.32;;;;;;;13.33;100.00;97609.47;4261886;33;20392;-68
2022/09/16 00:04:23;;;;;;;11.88;3.60;;;;;;;13.48;100.00;97608.34;4265247;33;20026;-68
2022/09/16 00:06:49;;;;;;;6.70;3.35;;;;;;;13.26;100.00;97603.66;4264351;33;20165;-71
2022/09/16 00:09:15;;;;;;;4.07;3.00;;;;;;;12.90;100.00;97580.06;4251535;33;20056;-68
2022/09/16 00:11:42;;;;;;;6.05;3.05;;;;;;;13.03;100.00;97584.63;4252551;33;20069;-69
2022/09/16 00:14:08;;;;;;;4.05;2.62;;;;;;;13.27;100.00;97605.25;4251595;33;20042;-69
2022/09/16 00:16:35;;;;;;;5.90;2.67;;;;;;;13.03;100.00;97579.22;4264526;33;20029;-69
2022/09/16 00:19:02;;;;;;;2.78;2.53;;;;;;;13.27;100.00;97613.34;4284371;33;20041;-69
2022/09/16 00:21:29;;;;;;;7.80;2.35;;;;;;;12.85;100.00;97593.66;4295154;33;20049;-69
2022/09/16 00:23:56;;;;;;;3.10;2.90;;;;;;;12.75;100.00;97610.03;4294887;33;20025;-69
2022/09/16 00:26:23;;;;;;;10.77;3.40;;;;;;;12.69;100.00;97607.44;4287159;33;20068;-68
2022/09/16 00:28:49;;;;;;;3.17;2.72;;;;;;;12.38;100.00;97541.59;4287719;33;20383;-70
2022/09/16 00:31:17;;;;;;;7.93;3.95;;;;;;;12.88;100.00;97641.69;4306047;33;20127;-69
2022/09/16 00:33:43;;;;;;;3.30;2.78;;;;;;;13.00;100.00;97639.31;4320763;33;20024;-70
2022/09/16 00:36:17;;;;;;;6.53;3.10;;;;;;;13.21;100.00;97623.47;4324120;33;20370;-70
2022/09/16 00:38:44;;;;;;;6.22;3.28;;;;;;;13.17;100.00;97633.28;4347804;32;20040;-71
2022/09/16 00:41:15;;;;;;;5.50;2.85;;;;;;;13.07;100.00;97636.19;4349006;32;20393;-69
2022/09/16 00:43:51;;;;;;;5.65;3.30;;;;;;;12.41;100.00;97593.09;4353845;32;20035;-70
2022/09/16 00:46:38;;;;;;;6.85;3.47;;;;;;;12.64;100.00;97626.44;4352773;32;20047;-70
2022/09/16 00:49:27;;;;;;;9.35;2.85;;;;;;;12.83;100.00;97634.47;4370081;32;20039;-69
2022/09/16 00:52:00;;;;;;;8.75;3.15;;;;;;;12.65;100.00;97622.66;4374073;32;20379;-72
2022/09/16 00:54:29;;;;;;;6.22;3.00;;;;;;;12.85;100.00;97626.06;4371555;32;20051;-68
2022/09/16 00:56:59;;;;;;;3.20;2.80;;;;;;;12.95;100.00;97630.47;4370477;32;20065;-68
2022/09/16 00:59:36;;;;;;;4.78;2.90;;;;;;;12.83;100.00;97623.66;4370572;32;20322;-69
2022/09/16 01:02:07;;;;;;;7.22;3.85;;;;;;;12.86;100.00;97606.03;4378970;32;20393;-70
2022/09/16 01:04:38;;;;;;;4.07;2.33;;;;;;;13.05;100.00;97644.59;4384085;32;20112;-69
2022/09/16 01:07:05;;;;;;;2.95;2.60;;;;;;;13.11;100.00;97639.09;4384775;32;20047;-69
2022/09/16 01:09:32;;;;;;;10.00;2.78;;;;;;;12.64;100.00;97626.44;4385264;32;20073;-69
2022/09/16 01:11:58;;;;;;;8.48;2.87;;;;;;;11.90;100.00;97553.44;4364704;32;20049;-70
2022/09/16 01:17:23;;;;;;;13.05;3.37;;;;;;;12.72;100.00;97628.44;4335045;33;20076;-69
2022/09/16 01:20:11;;;;;;;5.68;3.20;;;;;;;12.80;100.00;97645.09;4331443;33;20053;-70
2022/09/16 01:22:43;;;;;;;3.80;2.85;;;;;;;12.56;100.00;97640.63;4323528;33;20082;-69
2022/09/16 01:25:25;;;;;;;9.88;3.35;;;;;;;12.34;100.00;97616.97;4321286;33;20074;-70
2022/09/16 01:28:15;;;;;;;10.07;3.40;;;;;;;12.28;100.00;97656.72;4309105;33;20133;-70
2022/09/16 01:30:41;;;;;;;9.93;3.42;;;;;;;12.45;100.00;97652.69;4278111;33;20051;-70
2022/09/16 01:33:23;;;;;;;9.48;4.57;;;;;;;12.99;100.00;97653.91;4279878;33;20034;-69
2022/09/16 01:36:11;;;;;;;4.45;2.90;;;;;;;13.27;100.00;97648.50;4279041;33;20079;-69
2022/09/16 01:39:00;;;;;;;5.10;2.90;;;;;;;13.20;100.00;97610.28;4280411;33;20030;-70
2022/09/16 01:41:51;;;;;;;10.00;3.37;;;;;;;13.15;100.00;97642.81;4278931;33;20055;-74
2022/09/16 01:44:25;;;;;;;4.93;3.20;;;;;;;12.74;100.00;97605.75;4253722;33;20026;-70
2022/09/16 01:47:01;;;;;;;3.45;3.15;;;;;;;12.94;100.00;97654.00;4281879;33;20396;-71
2022/09/16 01:49:52;;;;;;;6.30;2.73;;;;;;;12.63;100.00;97643.72;4293918;33;20375;-69
2022/09/16 01:52:31;;;;;;;6.10;2.65;;;;;;;12.59;100.00;97645.44;4294451;33;20182;-69
2022/09/16 01:55:03;;;;;;;3.17;2.95;;;;;;;12.51;100.00;97628.00;4307400;33;20092;-69
2022/09/16 01:57:36;;;;;;;6.57;2.95;;;;;;;12.68;100.00;97583.44;4310744;33;20100;-70
2022/09/16 02:00:15;;;;;;;3.30;2.90;;;;;;;12.61;100.00;97605.44;4309821;33;20028;-69
2022/09/16 02:02:47;;;;;;;9.57;2.78;;;;;;;12.74;100.00;97621.97;4336891;33;20040;-69
2022/09/16 02:05:20;;;;;;;3.42;2.90;;;;;;;12.98;100.00;97636.09;4346263;32;20075;-69
2022/09/16 02:07:53;;;;;;;3.45;3.08;;;;;;;12.48;100.00;97574.63;4349364;32;20107;-69
2022/09/16 02:10:58;;;;;;;3.50;2.60;;;;;;;13.05;100.00;97641.91;4349249;32;20083;-73
2022/09/16 02:13:46;;;;;;;5.82;3.25;;;;;;;12.53;100.00;97614.22;4340730;33;20056;-69
2022/09/16 02:16:21;;;;;;;3.65;2.92;;;;;;;12.55;100.00;97601.22;4340288;33;20071;-69
2022/09/16 02:18:53;;;;;;;2.70;2.40;;;;;;;12.74;100.00;97608.47;4340073;33;20397;-70
2022/09/16 02:21:22;;;;;;;;;;;;;;;12.88;100.00;97647.09;4370057;32;20081;-69
2022/09/16 02:23:56;;;;;;;3.62;2.75;;;;;;;12.77;100.00;97651.06;4412252;32;19944;-69
2022/09/16 02:26:29;;;;;;;5.53;2.70;;;;;;;12.99;100.00;97645.00;4415694;32;20060;-69
2022/09/16 02:28:58;;;;;;;3.00;2.80;;;;;;;13.14;100.00;97622.28;4404469;32;20023;-72
2022/09/16 02:31:31;;;;;;;7.97;2.55;;;;;;;13.06;100.00;97646.19;4400365;32;20183;-70
2022/09/16 02:34:05;;;;;;;5.82;2.72;;;;;;;13.05;100.00;97641.91;4415026;32;20022;-69
2022/09/16 02:36:34;;;;;;;11.90;3.05;;;;;;;12.56;100.00;97621.72;4384329;32;20424;-72
2022/09/16 02:39:08;;;;;;;7.03;2.72;;;;;;;12.42;100.00;97650.59;4384839;32;20094;-69
2022/09/16 02:41:38;;;;;;;2.97;2.70;;;;;;;12.31;100.00;97656.13;4383258;32;20068;-69
2022/09/16 02:44:04;;;;;;;5.25;2.62;;;;;;;12.32;100.00;97652.34;4385249;32;20020;-69
2022/09/16 02:46:57;;;;;;;2.80;2.50;;;;;;;12.14;100.00;97639.69;4383535;32;20066;-70
2022/09/16 02:50:00;;;;;;;6.22;2.65;;;;;;;12.35;100.00;97608.59;4354634;32;20062;-69
2022/09/16 02:53:01;;;;;;;3.95;2.78;;;;;;;12.76;100.00;97649.47;4352176;32;20077;-69
2022/09/16 02:55:34;;;;;;;3.20;2.30;;;;;;;12.65;100.00;97649.66;4297271;33;20429;-72
2022/09/16 02:58:00;;;;;;;4.55;2.17;;;;;;;12.65;100.00;97657.75;4295795;33;20037;-69
2022/09/16 03:00:31;;;;;;;5.85;2.58;;;;;;;12.46;100.00;97600.28;4295838;33;20473;-69
2022/09/16 03:02:57;;;;;;;2.15;2.05;;;;;;;12.78;100.00;97652.66;4296423;33;20053;-69
2022/09/16 03:05:28;;;;;;;3.05;2.53;;;;;;;12.32;100.00;97619.97;4293802;33;20154;-71
2022/09/16 03:07:56;;;;;;;5.82;2.37;;;;;;;12.54;100.00;97645.53;4313838;33;20078;-69
2022/09/16 03:10:32;;;;;;;2.65;2.37;;;;;;;12.10;100.00;97625.19;4310250;33;20045;-69
2022/09/16 03:13:21;;;;;;;4.10;2.35;;;;;;;12.59;100.00;97661.63;4310678;33;20037;-71
2022/09/16 03:16:01;;;;;;;3.37;2.90;;;;;;;12.75;100.00;97654.06;4294350;33;20432;-69
2022/09/16 03:18:36;;;;;;;4.45;2.58;;;;;;;12.86;100.00;97654.66;4295898;33;20058;-69
2022/09/16 03:21:03;;;;;;;9.07;3.12;;;;;;;12.58;100.00;97660.03;4277888;33;20041;-69
2022/09/16 03:23:44;;;;;;;3.00;2.70;;;;;;;12.78;100.00;97663.47;4279930;33;20083;-69
2022/09/16 03:26:21;;;;;;;6.53;3.33;;;;;;;12.39;100.00;97624.19;4281552;33;20171;-69
2022/09/16 03:29:11;;;;;;;5.22;2.58;;;;;;;12.67;100.00;97652.84;4281040;33;20067;-69
2022/09/16 03:32:02;;;;;;;5.70;3.15;;;;;;;12.60;100.00;97657.81;4287620;33;20495;-69
2022/09/16 03:34:43;;;;;;;8.95;4.97;;;;;;;12.27;100.00;97611.12;4295446;33;20462;-69
2022/09/16 03:37:14;;;;;;;6.27;2.30;;;;;;;12.42;100.00;97629.78;4297526;33;20098;-69
2022/09/16 03:39:40;;;;;;;8.82;3.28;;;;;;;12.23;100.00;97629.81;4293517;33;20186;-72
2022/09/16 03:42:10;;;;;;;8.45;2.50;;;;;;;12.37;100.00;97658.78;4295084;33;20059;-68
2022/09/16 03:44:38;;;;;;;5.47;2.60;;;;;;;12.44;100.00;97675.38;4293251;33;20036;-68
2022/09/16 03:47:09;;;;;;;2.75;2.33;;;;;;;12.81;100.00;97669.09;4308919;33;20025;-68
2022/09/16 03:49:35;;;;;;;2.33;2.12;;;;;;;12.83;100.00;97647.97;4346953;32;20047;-69
2022/09/16 03:52:04;;;;;;;7.62;2.30;;;;;;;11.97;100.00;97587.06;4353764;32;20062;-68
2022/09/16 03:54:31;;;;;;;3.45;2.05;;;;;;;12.31;100.00;97639.94;4354140;32;20113;-67
2022/09/16 03:56:59;;;;;;;10.88;3.17;;;;;;;12.30;100.00;97638.37;4353623;32;20185;-69
2022/09/16 03:59:26;;;;;;;4.00;2.65;;;;;;;12.03;100.00;97630.97;4353689;32;20366;-68
2022/09/16 04:01:53;;;;;;;2.45;2.15;;;;;;;11.81;100.00;97663.88;4351898;32;20071;-71
2022/09/16 04:04:19;;;;;;;7.57;2.42;;;;;;;11.50;100.00;97617.66;4353804;32;20069;-68
2022/09/16 04:06:46;;;;;;;3.62;2.30;;;;;;;11.96;100.00;97671.78;4353042;32;20047;-67
2022/09/16 04:09:13;;;;;;;6.03;2.40;;;;;;;12.86;100.00;97633.06;4353546;32;20408;-67
2022/09/16 04:11:40;;;;;;;3.03;2.47;;;;;;;12.98;100.00;97671.19;4368061;32;20061;-68
2022/09/16 04:14:06;;;;;;;2.72;2.50;;;;;;;12.63;100.00;97659.94;4368348;32;20073;-68
2022/09/16 04:16:33;;;;;;;6.37;2.37;;;;;;;12.65;100.00;97660.47;4370495;32;20105;-67
2022/09/16 04:19:00;;;;;;;2.25;2.05;;;;;;;12.48;100.00;97671.00;4373124;32;20060;-68
2022/09/16 04:21:28;;;;;;;6.97;2.90;;;;;;;12.30;100.00;97645.63;4400288;32;20038;-68
2022/09/16 04:23:54;;;;;;;6.53;2.47;;;;;;;12.89;100.00;97670.28;4399448;32;20038;-72
2022/09/16 04:26:20;;;;;;;4.20;2.53;;;;;;;12.76;100.00;97644.84;4398584;32;20112;-69
2022/09/16 04:28:47;;;;;;;7.85;3.00;;;;;;;12.57;100.00;97680.00;4400555;32;20745;-69
2022/09/16 04:31:14;;;;;;;5.45;2.55;;;;;;;12.78;100.00;97690.47;4399928;32;20391;-68
2022/09/16 04:33:41;;;;;;;5.22;2.25;;;;;;;12.68;100.00;97665.28;4400481;32;20144;-69
2022/09/16 04:36:09;;;;;;;4.43;2.28;;;;;;;12.31;100.00;97661.53;4387363;32;20071;-72
2022/09/16 04:38:35;;;;;;;5.35;2.75;;;;;;;12.27;100.00;97660.53;4390979;32;20065;-69
2022/09/16 04:41:05;;;;;;;8.77;2.30;;;;;;;12.62;100.00;97704.25;4398696;32;20174;-69
2022/09/16 04:43:32;;;;;;;8.13;3.05;;;;;;;12.77;100.00;97661.87;4399132;32;20047;-68
2022/09/16 04:45:58;;;;;;;5.95;2.67;;;;;;;12.30;100.00;97669.94;4399088;32;20069;-69
2022/09/16 04:48:25;;;;;;;2.40;2.20;;;;;;;12.76;100.00;97665.66;4394728;32;20383;-73
2022/09/16 04:50:52;;;;;;;6.87;2.45;;;;;;;12.49;100.00;97656.41;4398020;32;20084;-69
2022/09/16 04:53:26;;;;;;;3.72;2.28;;;;;;;12.59;100.00;97688.62;4398435;32;20054;-69
2022/09/16 04:55:53;;;;;;;4.15;2.22;;;;;;;12.64;100.00;97699.34;4397501;32;20342;-68
2022/09/16 04:58:19;;;;;;;2.70;2.47;;;;;;;12.57;100.00;97701.63;4397807;32;20081;-70
2022/09/16 05:00:45;;;;;;;5.05;2.20;;;;;;;12.22;100.00;97671.41;4348324;32;20062;-68
2022/09/16 05:03:12;;;;;;;10.07;2.58;;;;;;;12.15;100.00;97641.28;4352758;32;20156;-69
2022/09/16 05:05:38;;;;;;;8.25;2.58;;;;;;;12.63;100.00;97662.63;4352845;32;20039;-68
2022/09/16 05:08:04;;;;;;;4.40;2.50;;;;;;;12.75;100.00;97688.38;4323539;33;20037;-69
2022/09/16 05:10:31;;;;;;;6.07;2.45;;;;;;;12.29;100.00;97674.53;4320025;33;20084;-69
2022/09/16 05:12:57;;;;;;;6.32;2.45;;;;;;;12.44;100.00;97653.78;4320978;33;20076;-69
2022/09/16 05:15:23;;;;;;;3.42;2.50;;;;;;;12.18;100.00;97675.78;4322818;33;20553;-69
2022/09/16 05:17:50;;;;;;;6.62;2.20;;;;;;;12.40;100.00;97658.16;4321484;33;20078;-69
2022/09/16 05:20:16;;;;;;;8.10;2.25;;;;;;;12.61;100.00;97686.44;4278861;33;20109;-69
2022/09/16 05:22:42;;;;;;;2.75;1.90;;;;;;;12.86;100.00;97687.09;4276850;33;20447;-69
2022/09/16 05:25:09;;;;;;;7.07;2.40;;;;;;;12.47;100.00;97701.78;4274361;33;20057;-71
2022/09/16 05:27:35;;;;;;;12.68;2.47;;;;;;;12.29;100.00;97658.34;4277725;33;20045;-68
2022/09/16 05:30:02;;;;;;;5.80;2.00;;;;;;;12.44;100.00;97664.59;4274757;33;20149;-68
2022/09/16 05:32:29;;;;;;;3.45;2.15;;;;;;;12.63;100.00;97692.34;4257632;33;20193;-70
2022/09/16 05:35:04;;;;;;;5.40;1.50;;;;;;;12.86;100.00;97704.13;4441651;31;20068;-73
2022/09/16 05:37:30;;;;;;;2.17;1.58;;;;;;;12.86;100.00;97704.13;4441771;32;20169;-69
2022/09/16 05:39:57;;;;;;;7.15;2.00;;;;;;;12.02;100.00;97669.03;4442706;32;20086;-68
2022/09/16 05:42:23;;;;;;;15.82;2.50;;;;;;;12.40;100.00;97707.56;4436823;32;20411;-69
2022/09/16 05:44:49;;;;;;;4.50;3.35;;;;;;;12.42;100.00;97691.06;4418715;32;20054;-69
2022/09/16 05:47:15;;;;;;;4.53;3.03;;;;;;;12.28;100.00;97645.94;4407573;32;20082;-73
2022/09/16 05:49:42;;;;;;;2.35;1.87;;;;;;;12.27;100.00;97690.22;4407462;32;20191;-71
2022/09/16 05:52:08;;;;;;;3.35;1.73;;;;;;;12.09;100.00;97654.03;4409285;32;20051;-69
2022/09/16 05:54:35;;;;;;;4.62;2.47;;;;;;;11.94;100.00;97663.19;4409430;32;20072;-72
2022/09/16 05:57:01;;;;;;;3.30;2.47;;;;;;;12.16;100.00;97702.25;4407975;32;20064;-70
2022/09/16 05:59:27;;;;;;;8.43;2.22;;;;;;;12.39;100.00;97697.06;4406061;32;20078;-76
2022/09/16 06:01:54;;;;;;;7.97;2.15;;;;;;;12.92;100.00;97683.19;4387991;32;20050;-71
2022/09/16 06:04:20;;;;;;;2.47;2.08;;;;;;;12.71;100.00;97643.03;4382208;32;20506;-73
2022/09/16 06:06:47;;;;;;;3.72;1.70;;;;;;;13.20;100.00;97688.66;4385030;32;20483;-70
2022/09/16 06:09:22;;;;;;;10.38;2.37;;;;;;;12.84;100.00;97648.78;4388374;32;20031;-72
2022/09/16 06:11:50;;;;;;;6.12;1.65;;;;;;;12.64;100.00;97648.03;4388573;32;20113;-72
2022/09/16 06:14:18;;;;;;;4.93;1.83;;;;;;;12.56;100.00;97650.59;4392513;32;20132;-71
2022/09/16 06:16:46;;;;;;;6.72;2.20;;;;;;;12.80;100.00;97688.28;4400032;32;20052;-72
2022/09/16 06:19:16;;;;;;;7.60;3.25;;;;;;;13.18;100.00;97688.12;4405755;32;20442;-71
2022/09/16 06:21:43;;;;;;;2.92;1.77;;;;;;;12.99;100.00;97647.72;4401433;32;20356;-72
2022/09/16 06:24:11;;;;;;;5.37;1.98;;;;;;;12.93;100.00;97686.72;4392874;32;20035;-70
2022/09/16 06:26:40;;;;;;;7.12;2.53;;;;;;;13.00;100.00;97697.91;4398117;32;20056;-71
2022/09/16 06:29:08;;;;;;;2.22;1.90;;;;;;;13.02;100.00;97680.31;4394506;32;20096;-70
2022/09/16 06:31:36;;;;;;;8.05;1.85;;;;;;;12.67;100.00;97685.25;4393245;32;20065;-71
2022/09/16 06:34:04;;;;;;;6.53;1.73;;;;;;;12.98;100.00;97684.72;4408123;32;20105;-71
2022/09/16 06:36:33;;;;;;;3.15;1.73;;;;;;;13.17;100.00;97681.94;4409537;32;20475;-71
2022/09/16 06:39:00;;;;;;;4.82;1.73;;;;;;;13.09;100.00;97640.19;4410630;32;20026;-72
2022/09/16 06:41:27;;;;;;;4.53;1.70;;;;;;;13.27;100.00;97637.69;4409260;32;20058;-73
2022/09/16 06:43:53;;;;;;;12.30;2.10;;;;;;;13.17;100.00;97648.72;4410326;32;20967;-70
2022/09/16 06:46:25;;;;;;;7.47;1.40;;;;;;;13.06;100.00;97637.28;4406108;32;20031;-73
2022/09/16 06:48:57;;;;;;;4.97;1.75;;;;;;;12.42;100.00;97629.78;4402509;32;20364;-71
2022/09/16 06:51:26;;;;;;;12.98;2.25;;;;;;;13.17;100.00;97692.75;4398267;32;20104;-74
2022/09/16 06:53:57;;;;;;;6.35;1.75;;;;;;;13.55;100.00;97705.31;4417029;32;20043;-69
2022/09/16 06:56:24;;;;;;;5.05;1.60;;;;;;;13.02;100.00;97696.53;4400227;32;20034;-72
2022/09/16 06:58:52;;;;;;;5.60;1.70;;;;;;;12.82;100.00;97648.28;4404690;32;20052;-71
2022/09/16 07:01:29;;;;;;;3.65;1.20;;;;;;;13.31;100.00;97681.94;4412637;32;20391;-73
2022/09/16 07:03:57;;;;;;;10.88;1.42;;;;;;;13.36;100.00;97644.03;4414988;32;20046;-70
2022/09/16 07:06:28;;;;;;;4.55;1.70;;;;;;;13.25;100.00;97661.50;4414010;32;20035;-70
2022/09/16 07:08:54;;;;;;;6.78;1.65;;;;;;;13.51;100.00;97658.31;4415070;32;20031;-72
2022/09/16 07:11:21;;;;;;;9.63;1.37;;;;;;;13.66;100.00;97682.34;4411490;32;20436;-73
2022/09/16 07:13:49;;;;;;;6.28;1.90;;;;;;;13.28;100.00;97704.16;4412584;32;20043;-71
2022/09/16 07:16:23;;;;;;;7.68;1.90;;;;;;;13.49;100.00;97723.53;4410337;32;20083;-72
2022/09/16 07:18:58;;;;;;;8.25;2.05;;;;;;;13.47;100.00;97711.41;4409318;32;20101;-72
2022/09/16 07:21:28;;;;;;;5.37;1.33;;;;;;;13.81;100.00;97706.34;4369684;32;20047;-71
2022/09/16 07:23:57;;;;;;;8.52;1.55;;;;;;;13.52;100.00;97682.34;4369267;32;20061;-73
2022/09/16 07:26:29;;;;;;;3.53;1.70;;;;;;;13.83;100.00;97707.97;4370085;32;20407;-74
2022/09/16 07:28:59;;;;;;;4.30;1.50;;;;;;;13.54;100.00;97627.97;4383314;32;20485;-76
2022/09/16 07:31:28;;;;;;;1.30;1.20;;;;;;;13.99;100.00;97714.66;4384193;32;20085;-73
2022/09/16 07:33:56;;;;;;;3.75;1.67;;;;;;;13.61;100.00;97713.00;4383140;32;20035;-72
2022/09/16 07:36:25;;;;;;;5.70;1.48;;;;;;;14.10;100.00;97710.59;4368788;32;20335;-71
2022/09/16 07:38:57;;;;;;;7.47;1.75;;;;;;;13.99;100.00;97695.69;4365598;32;20405;-72
2022/09/16 07:41:27;;;;;;;9.63;1.60;;;;;;;14.27;100.00;97698.34;4354416;32;21376;-71
2022/09/16 07:43:57;;;;;;;5.05;3.15;;;;;;;14.28;100.00;97670.16;4320672;33;20045;-71
2022/09/16 07:46:26;;;;;;;6.47;1.30;;;;;;;14.03;100.00;97744.63;4294806;33;20044;-70
2022/09/16 07:48:54;;;;;;;3.15;1.48;;;;;;;13.97;100.00;97676.28;4293481;33;20071;-70
2022/09/16 07:51:24;;;;;;;11.02;1.92;;;;;;;14.14;100.00;97719.72;4294617;33;20292;-72
2022/09/16 07:54:01;;;;;;;3.62;1.83;;;;;;;13.74;100.00;97684.34;4283929;33;20033;-71
2022/09/16 07:56:31;;;;;;;3.28;1.25;;;;;;;13.76;100.00;97676.72;4287767;33;20087;-72
2022/09/16 07:58:58;;;;;;;6.50;1.35;;;;;;;13.93;100.00;97724.00;4296229;33;20116;-69
2022/09/16 08:01:24;;;;;;;5.90;2.08;;;;;;;14.17;100.00;97713.72;4295523;33;20040;-71
2022/09/16 08:03:52;;;;;;;7.75;1.60;;;;;;;13.55;100.00;97626.88;4294581;33;20033;-70
2022/09/16 08:06:27;;;;;;;8.70;1.83;;;;;;;14.25;100.00;97705.94;4316215;32;20024;-70
2022/09/16 08:08:56;;;;;;;4.43;1.40;;;;;;;13.95;100.00;97673.06;4352826;32;20032;-70
2022/09/16 08:11:28;;;;;;;;;;;;;;;14.23;100.00;97710.88;4354698;32;20045;-71
2022/09/16 08:13:56;;;;;;;1.83;1.25;;;;;;;14.42;100.00;97708.78;4371317;32;19945;-70
2022/09/16 08:16:23;;;;;;;3.62;1.08;;;;;;;14.10;100.00;97710.59;4391730;32;20478;-71
2022/09/16 08:18:52;;;;;;;3.90;1.08;;;;;;;14.17;100.00;97691.25;4396791;32;20068;-72
2022/09/16 08:21:23;;;;;;;8.98;2.90;;;;;;;14.16;100.00;97674.19;4398978;32;20057;-72
2022/09/16 08:23:49;;;;;;;7.97;1.40;;;;;;;13.67;100.00;97661.50;4399021;32;20030;-71
2022/09/16 08:26:17;;;;;;;2.17;1.10;;;;;;;14.19;100.00;97715.31;4398924;32;20336;-70
2022/09/16 08:28:45;;;;;;;7.82;3.55;;;;;;;14.04;100.00;97725.38;4396538;32;20074;-70
2022/09/16 08:31:12;;;;;;;5.97;1.58;;;;;;;13.86;100.00;97664.88;4397593;32;20100;-71
2022/09/16 08:33:39;;;;;;;2.05;1.12;;;;;;;13.93;100.00;97719.38;4382214;32;20031;-70
2022/09/16 08:36:13;;;;;;;11.52;1.27;;;;;;;14.10;100.00;97702.47;4368667;32;20039;-71
2022/09/16 08:38:40;;;;;;;2.67;1.30;;;;;;;14.16;100.00;97722.94;4337649;33;20095;-71
2022/09/16 08:41:28;;;;;;;2.40;1.08;;;;;;;14.53;100.00;97707.47;4339151;33;20032;-70
2022/09/16 08:44:25;;;;;;;3.25;1.70;;;;;;;14.72;100.00;97706.50;4336790;33;20077;-73
2022/09/16 08:46:57;;;;;;;4.10;1.30;;;;;;;14.39;100.00;97714.84;4338697;33;20453;-73
2022/09/16 08:49:38;;;;;;;1.23;1.20;;;;;;;14.58;100.00;97667.81;4308257;33;20071;-71
2022/09/16 08:52:13;;;;;;;6.97;1.77;;;;;;;14.53;100.00;97657.91;4309112;33;20188;-71
2022/09/16 08:54:48;;;;;;;3.67;1.48;;;;;;;14.67;100.00;97720.97;4308731;33;20040;-70
2022/09/16 08:57:21;;;;;;;6.90;1.23;;;;;;;14.82;100.00;97703.53;4307202;33;20036;-73
2022/09/16 09:00:02;;;;;;;4.20;1.08;;;;;;;14.62;100.00;97690.50;4279390;33;20114;-74
2022/09/16 09:02:37;;;;;;;5.25;0.80;;;;;;;14.83;100.00;97702.41;4268460;33;20057;-71
2022/09/16 09:05:33;;;;;;;4.25;1.33;;;;;;;14.38;100.00;97680.75;4263559;33;20037;-71
2022/09/16 09:08:17;;;;;;;3.58;0.80;;;;;;;14.80;100.00;97713.87;4279364;33;20597;-71
2022/09/16 09:10:56;;;;;;;3.92;1.45;;;;;;;15.02;100.00;97704.13;4332620;33;20751;-71
2022/09/16 09:13:28;;;;;;;4.20;1.20;;;;;;;14.73;100.00;97680.19;4343971;32;20424;-71
2022/09/16 09:16:13;;;;;;;1.15;1.12;;;;;;;14.78;100.00;97721.53;4336848;33;20451;-74
2022/09/16 09:18:52;;;;;;;1.20;1.15;;;;;;;14.84;100.00;97709.44;4337337;33;20032;-73
2022/09/16 09:21:43;;;;;;;3.78;1.52;;;;;;;14.43;100.00;97682.53;4338832;33;20044;-71
2022/09/16 09:24:51;;;;;;;4.47;1.10;;;;;;;14.48;100.00;97729.25;4338514;33;20037;-71
2022/09/16 09:27:52;;;;;;;4.97;1.37;;;;;;;14.41;100.00;97715.34;4324666;32;20040;-73
2022/09/16 09:30:24;;;;;;;6.43;1.37;;;;;;;14.85;100.00;97719.19;4357655;32;20170;-70
2022/09/16 09:33:12;;;;;;;1.33;1.00;;;;;;;14.46;100.00;97652.94;4382664;32;20831;-70
2022/09/16 09:35:57;;;;;;;8.27;1.52;;;;;;;14.98;100.00;97703.12;4382150;32;20043;-71
2022/09/16 09:38:49;;;;;;;5.43;1.62;;;;;;;15.36;100.00;97718.94;4382647;32;20035;-70
2022/09/16 09:41:38;;;;;;;2.87;1.17;;;;;;;15.18;100.00;97729.72;4382979;32;20061;-71
2022/09/16 09:44:23;;;;;;;2.05;1.17;;;;;;;15.03;100.00;97673.19;4377803;32;20355;-70
2022/09/16 09:46:55;;;;;;;4.78;1.77;;;;;;;15.35;100.00;97712.72;4387845;32;20162;-70
2022/09/16 09:49:36;;;;;;;1.37;0.90;;;;;;;15.17;100.00;97708.34;4346486;33;20036;-71
2022/09/16 09:52:25;;;;;;;6.75;1.10;;;;;;;14.83;100.00;97691.56;4335802;33;20032;-69
2022/09/16 09:54:52;;;;;;;2.58;1.42;;;;;;;15.28;100.00;97714.28;4335196;33;20092;-73
2022/09/16 09:57:36;;;;;;;4.70;1.50;;;;;;;15.24;100.00;97728.47;4339189;32;20197;-70
2022/09/16 10:00:15;;;;;;;3.60;1.55;;;;;;;15.66;100.00;97738.22;4364831;32;20103;-71
2022/09/16 10:02:44;;;;;;;1.60;1.10;;;;;;;15.61;100.00;97720.94;4364523;32;20444;-72
2022/09/16 10:05:25;;;;;;;2.05;1.23;;;;;;;15.34;100.00;97734.75;4367395;32;20102;-70
2022/09/16 10:07:56;;;;;;;6.85;1.15;;;;;;;15.35;100.00;97725.47;4368006;32;20040;-70
2022/09/16 10:10:25;;;;;;;1.45;0.88;;;;;;;15.31;100.00;97735.34;4330941;33;20068;-74
2022/09/16 10:12:52;;;;;;;0.90;0.90;;;;;;;14.97;100.00;97690.72;4309041;33;20046;-71
2022/09/16 10:15:25;;;;;;;2.87;1.23;;;;;;;15.24;100.00;97717.62;4308386;33;20480;-71
2022/09/16 10:17:53;;;;;;;3.33;2.08;;;;;;;15.28;100.00;97744.91;4308060;33;20041;-71
2022/09/16 10:20:33;;;;;;;4.47;1.30;;;;;;;15.55;100.00;97708.63;4320545;33;20049;-71
2022/09/16 10:23:09;;;;;;;0.73;0.73;;;;;;;15.71;100.00;97719.06;4348520;32;20048;-73
2022/09/16 10:25:36;;;;;;;11.27;1.30;;;;;;;15.45;100.00;97695.38;4339467;33;20393;-71
2022/09/16 10:28:16;;;;;;;4.25;0.93;;;;;;;15.47;100.00;97736.53;4336459;33;20044;-71
2022/09/16 10:30:46;;;;;;;2.40;1.60;;;;;;;15.69;100.00;97683.31;4326151;33;20073;-72
2022/09/16 10:33:21;;;;;;;2.80;0.93;;;;;;;15.57;100.00;97676.59;4331954;33;20470;-72
2022/09/16 10:35:56;;;;;;;1.92;1.12;;;;;;;15.13;100.00;97640.38;4337105;33;20429;-74
2022/09/16 10:38:33;;;;;;;1.95;1.40;;;;;;;15.89;100.00;97688.16;4322531;33;20460;-71
2022/09/16 10:41:12;;;;;;;0.80;0.80;;;;;;;16.08;100.00;97719.63;4330879;33;20036;-70
2022/09/16 10:43:47;;;;;;;1.02;1.00;;;;;;;15.86;100.00;97713.22;4339926;33;20075;-70
2022/09/16 10:46:15;;;;;;;1.73;0.95;;;;;;;16.14;100.00;97737.37;4338506;33;20405;-72
2022/09/16 10:48:42;;;;;;;6.22;1.40;;;;;;;16.40;100.00;97712.13;4337432;33;20060;-71
2022/09/16 10:51:20;;;;;;;4.43;1.10;;;;;;;15.81;100.00;97669.94;4336773;33;20470;-73
2022/09/16 10:53:55;;;;;;;0.98;0.95;;;;;;;15.73;100.00;97668.81;4336181;33;20044;-70
2022/09/16 10:56:30;;;;;;;1.60;1.35;;;;;;;15.34;100.00;97683.22;4320512;33;20062;-70
2022/09/16 10:59:11;;;;;;;9.18;2.67;;;;;;;16.14;100.00;97673.00;4337690;33;20048;-75
2022/09/16 11:02:09;;;;;;;3.70;0.93;;;;;;;16.98;100.00;97697.22;4352110;32;20043;-69
2022/09/16 11:05:07;;;;;;;2.92;1.17;;;;;;;17.12;100.00;97698.94;4342310;32;20062;-70
2022/09/16 11:07:49;;;;;;;1.75;1.10;;;;;;;16.76;100.00;97664.78;4339090;33;20053;-70
2022/09/16 11:10:25;;;;;;;3.70;1.17;;;;;;;16.88;100.00;97675.81;4351979;32;20051;-69
2022/09/16 11:13:10;;;;;;;1.77;1.00;;;;;;;17.10;100.00;97706.63;4353747;32;20410;-71
2022/09/16 11:15:54;;;;;;;4.12;2.45;;;;;;;16.76;100.00;97681.09;4351283;32;20036;-70
2022/09/16 11:18:44;;;;;;;2.70;1.12;;;;;;;16.60;100.00;97694.41;4354396;32;20072;-69
2022/09/16 11:21:56;;;;;;;1.12;1.10;;;;;;;16.62;100.00;97708.47;4336536;33;20037;-70
2022/09/16 11:24:28;;;;;;;4.32;1.55;;;;;;;16.96;100.00;97664.13;4352351;32;20333;-69
2022/09/16 11:27:16;;;;;;;7.43;1.25;;;;;;;17.29;100.00;97715.19;4342233;33;20032;-70
2022/09/16 11:29:45;;;;;;;7.40;1.17;;;;;;;16.63;100.00;97680.97;4351739;32;20112;-70
2022/09/16 11:32:45;;;;;;;4.75;1.42;;;;;;;16.46;100.00;97662.75;4320776;33;20048;-69
2022/09/16 11:35:30;;;;;;;1.00;0.80;;;;;;;16.32;100.00;97670.28;4322966;33;20052;-69
2022/09/16 11:38:40;;;;;;;3.42;0.88;;;;;;;16.30;100.00;97705.91;4313193;33;20070;-69
2022/09/16 11:41:22;;;;;;;1.40;0.80;;;;;;;15.90;100.00;97730.47;4333798;33;20062;-72
2022/09/16 11:44:07;;;;;;;2.37;1.30;;;;;;;15.67;100.00;97690.94;4338251;33;20086;-72
2022/09/16 11:47:04;;;;;;;3.35;1.30;;;;;;;15.79;100.00;97699.31;4336580;33;20036;-71
2022/09/16 11:50:27;;;;;;;4.80;1.25;;;;;;;15.55;100.00;97657.09;4338992;33;20044;-72
2022/09/16 11:53:37;;;;;;;6.12;1.87;;;;;;;15.72;100.00;97696.25;4316901;33;20087;-75
2022/09/16 11:56:15;;;;;;;2.62;0.90;;;;;;;15.93;100.00;97710.84;4332719;33;20674;-69
2022/09/16 11:59:17;;;;;;;2.75;1.20;;;;;;;16.05;100.00;97707.50;4345261;33;20350;-71